createdAt,value
2019-01-26T00:00:58.964Z,99.90
2019-01-26T00:03:36.604Z,99.90
2019-01-26T00:06:10.322Z,99.90
2019-01-26T00:08:43.421Z,99.90
2019-01-26T00:11:16.535Z,99.90
2019-01-26T00:13:48.595Z,99.90
2019-01-26T00:16:21.191Z,99.90
2019-01-26T00:18:53.135Z,99.90
2019-01-26T00:21:24.981Z,99.90
2019-01-26T00:23:57.326Z,99.90
2019-01-26T00:26:29.982Z,99.90
2019-01-26T00:29:04.792Z,99.90
2019-01-26T00:31:38.193Z,99.90
2019-01-26T00:34:10.461Z,99.90
2019-01-26T00:36:42.420Z,99.90
2019-01-26T00:39:14.232Z,99.90
2019-01-26T00:41:46.470Z,99.90
2019-01-26T00:44:18.319Z,99.90
2019-01-26T00:46:50.459Z,99.90
2019-01-26T00:49:22.378Z,99.90
2019-01-26T00:51:54.027Z,99.90
2019-01-26T00:54:25.774Z,99.90
2019-01-26T00:56:57.730Z,99.90
2019-01-26T00:59:30.158Z,99.90
2019-01-26T01:02:02.146Z,99.90
2019-01-26T01:04:34.323Z,99.90
2019-01-26T01:07:08.438Z,99.90
2019-01-26T01:09:41.605Z,99.90
2019-01-26T01:12:14.136Z,99.90
2019-01-26T01:14:47.075Z,99.90
2019-01-26T01:17:21.323Z,99.90
2019-01-26T01:19:53.904Z,99.90
2019-01-26T01:22:26.241Z,99.90
2019-01-26T01:24:58.159Z,99.90
2019-01-26T01:27:31.666Z,99.90
2019-01-26T01:30:07.680Z,99.90
2019-01-26T01:32:39.875Z,99.90
2019-01-26T01:35:12.674Z,99.90
2019-01-26T01:37:44.649Z,99.90
2019-01-26T01:40:19.148Z,99.90
2019-01-26T01:42:51.875Z,99.90
2019-01-26T01:45:24.743Z,99.90
2019-01-26T01:47:58.162Z,99.90
2019-01-26T01:50:30.052Z,99.90
2019-01-26T01:53:05.449Z,99.90
2019-01-26T01:55:37.881Z,99.90
2019-01-26T01:58:09.588Z,99.90
2019-01-26T02:00:41.404Z,99.90
2019-01-26T02:03:19.073Z,99.90
2019-01-26T02:06:00.874Z,99.90
2019-01-26T02:08:32.967Z,99.90
2019-01-26T02:11:07.276Z,99.90
2019-01-26T02:13:41.536Z,99.90
2019-01-26T02:16:16.735Z,99.90
2019-01-26T02:18:49.236Z,99.90
2019-01-26T02:21:22.257Z,99.90
2019-01-26T02:23:54.502Z,99.90
2019-01-26T02:26:31.173Z,99.90
2019-01-26T02:29:02.909Z,99.90
2019-01-26T02:31:37.861Z,99.90
2019-01-26T02:34:10.214Z,99.90
2019-01-26T02:36:41.888Z,99.90
2019-01-26T02:39:14.640Z,99.90
2019-01-26T02:41:47.431Z,99.90
2019-01-26T02:44:19.721Z,99.90
2019-01-26T02:46:57.931Z,99.90
2019-01-26T02:49:25.151Z,99.90
2019-01-26T02:51:57.172Z,99.90
2019-01-26T02:54:28.972Z,99.90
2019-01-26T02:57:00.830Z,99.90
2019-01-26T02:59:32.613Z,99.90
2019-01-26T03:02:05.251Z,99.90
2019-01-26T03:04:37.409Z,99.90
2019-01-26T03:07:10.258Z,99.90
2019-01-26T03:09:42.031Z,99.90
2019-01-26T03:12:13.766Z,99.90
2019-01-26T03:14:46.072Z,99.90
2019-01-26T03:17:17.784Z,99.90
2019-01-26T03:19:49.608Z,99.90
2019-01-26T03:22:22.753Z,99.90
2019-01-26T03:24:54.932Z,99.90
2019-01-26T03:27:26.802Z,99.90
2019-01-26T03:29:58.483Z,99.90
2019-01-26T03:32:30.160Z,99.90
2019-01-26T03:35:02.380Z,99.90
2019-01-26T03:37:34.183Z,99.90
2019-01-26T03:40:08.349Z,99.90
2019-01-26T03:42:40.095Z,99.90
2019-01-26T03:45:13.894Z,99.90
2019-01-26T03:47:45.664Z,99.90
2019-01-26T03:50:18.201Z,99.90
2019-01-26T03:52:51.488Z,99.90
2019-01-26T03:55:24.221Z,99.90
2019-01-26T03:57:56.000Z,99.90
2019-01-26T04:00:28.638Z,99.90
2019-01-26T04:03:00.556Z,99.90
2019-01-26T04:05:33.572Z,99.90
2019-01-26T04:08:06.285Z,99.90
2019-01-26T04:10:38.188Z,99.90
2019-01-26T04:13:09.909Z,99.90
2019-01-26T04:15:41.647Z,99.90
2019-01-26T04:18:13.884Z,99.90
2019-01-26T04:20:45.676Z,99.90
2019-01-26T04:23:17.376Z,99.90
2019-01-26T04:25:49.278Z,99.90
2019-01-26T04:28:20.968Z,99.90
2019-01-26T04:30:53.091Z,99.90
2019-01-26T04:33:24.744Z,99.90
2019-01-26T04:35:57.031Z,99.90
2019-01-26T04:38:29.465Z,99.90
2019-01-26T04:41:01.271Z,99.90
2019-01-26T04:43:32.949Z,99.90
2019-01-26T04:46:04.679Z,99.90
2019-01-26T04:48:36.579Z,99.90
2019-01-26T04:51:09.033Z,99.90
2019-01-26T04:53:41.018Z,99.90
2019-01-26T04:56:12.895Z,99.90
2019-01-26T04:58:44.929Z,99.90
2019-01-26T05:01:16.583Z,99.90
2019-01-26T05:03:48.359Z,99.90
2019-01-26T05:06:20.527Z,99.90
2019-01-26T05:08:52.312Z,99.90
2019-01-26T05:11:24.062Z,99.90
2019-01-26T05:13:56.255Z,99.90
2019-01-26T05:16:27.935Z,99.90
2019-01-26T05:18:59.827Z,99.90
2019-01-26T05:21:32.514Z,99.90
2019-01-26T05:24:05.911Z,99.90
2019-01-26T05:26:37.769Z,99.90
2019-01-26T05:29:09.449Z,99.90
2019-01-26T05:31:41.089Z,99.90
2019-01-26T05:34:12.769Z,99.90
2019-01-26T05:36:44.645Z,99.90
2019-01-26T05:39:16.346Z,99.90
2019-01-26T05:41:48.223Z,99.90
2019-01-26T05:44:20.650Z,99.90
2019-01-26T05:46:53.829Z,99.90
2019-01-26T05:49:25.534Z,99.90
2019-01-26T05:51:57.275Z,99.90
2019-01-26T05:54:29.011Z,99.90
2019-01-26T05:57:02.205Z,99.90
2019-01-26T05:59:34.061Z,99.90
2019-01-26T06:02:06.221Z,99.90
2019-01-26T06:04:39.693Z,99.90
2019-01-26T06:07:11.476Z,99.90
2019-01-26T06:09:43.162Z,99.90
2019-01-26T06:12:14.815Z,99.90
2019-01-26T06:14:46.855Z,99.90
2019-01-26T06:17:18.510Z,99.90
2019-01-26T06:19:50.214Z,99.90
2019-01-26T06:22:21.801Z,99.90
2019-01-26T06:24:53.492Z,99.90
2019-01-26T06:27:25.373Z,99.90
2019-01-26T06:29:57.332Z,99.90
2019-01-26T06:32:29.059Z,99.90
2019-01-26T06:35:02.189Z,99.90
2019-01-26T06:37:33.835Z,99.90
2019-01-26T06:40:07.320Z,99.90
2019-01-26T06:42:39.230Z,99.90
2019-01-26T06:45:13.480Z,99.90
2019-01-26T06:47:45.544Z,99.90
2019-01-26T06:50:20.971Z,99.90
2019-01-26T06:52:52.714Z,99.90
2019-01-26T06:55:24.429Z,99.90
2019-01-26T06:57:56.120Z,99.90
2019-01-26T07:00:29.631Z,99.90
2019-01-26T07:03:01.610Z,99.90
2019-01-26T07:05:35.092Z,99.90
2019-01-26T07:08:07.218Z,99.90
2019-01-26T07:10:38.799Z,99.90
2019-01-26T07:13:10.523Z,99.90
2019-01-26T07:15:42.304Z,99.90
2019-01-26T07:18:14.200Z,99.90
2019-01-26T07:20:46.498Z,99.90
2019-01-26T07:23:18.192Z,99.90
2019-01-26T07:25:49.948Z,99.90
2019-01-26T07:28:21.640Z,99.90
2019-01-26T07:30:53.422Z,99.90
2019-01-26T07:33:25.096Z,99.90
2019-01-26T07:35:56.755Z,99.90
2019-01-26T07:38:28.442Z,99.90
2019-01-26T07:41:00.223Z,99.90
2019-01-26T07:43:32.580Z,99.90
2019-01-26T07:46:04.240Z,99.90
2019-01-26T07:48:36.007Z,99.90
2019-01-26T07:51:07.594Z,99.90
2019-01-26T07:53:39.299Z,99.90
2019-01-26T07:56:10.987Z,99.90
2019-01-26T07:58:42.629Z,99.90
2019-01-26T08:01:14.335Z,99.90
2019-01-26T08:03:46.074Z,99.90
2019-01-26T08:06:18.256Z,99.90
2019-01-26T08:08:50.307Z,99.90
2019-01-26T08:11:21.996Z,99.90
2019-01-26T08:13:53.847Z,99.90
2019-01-26T08:16:25.454Z,99.90
2019-01-26T08:18:57.166Z,99.90
2019-01-26T08:21:28.891Z,99.90
2019-01-26T08:24:00.581Z,99.90
2019-01-26T08:26:32.239Z,99.90
2019-01-26T08:29:03.879Z,99.90
2019-01-26T08:31:35.609Z,99.90
2019-01-26T08:34:08.663Z,99.90
2019-01-26T08:36:40.364Z,99.90
2019-01-26T08:39:11.952Z,99.90
2019-01-26T08:41:43.759Z,99.90
2019-01-26T08:44:15.466Z,99.90
2019-01-26T08:46:47.177Z,99.90
2019-01-26T08:49:18.832Z,99.90
2019-01-26T08:51:50.476Z,99.90
2019-01-26T08:54:22.189Z,99.90
2019-01-26T08:56:54.624Z,99.90
2019-01-26T08:59:26.219Z,99.90
2019-01-26T09:01:59.266Z,99.90
2019-01-26T09:04:30.896Z,99.90
2019-01-26T09:07:03.152Z,99.90
2019-01-26T09:09:34.739Z,99.90
2019-01-26T09:12:06.436Z,99.90
2019-01-26T09:14:38.674Z,99.90
2019-01-26T09:17:10.530Z,99.90
2019-01-26T09:19:42.259Z,99.90
2019-01-26T09:22:13.987Z,99.90
2019-01-26T09:24:45.737Z,99.90
2019-01-26T09:27:17.548Z,99.90
2019-01-26T09:29:49.436Z,99.90
2019-01-26T09:32:21.086Z,99.90
2019-01-26T09:34:52.768Z,99.90
2019-01-26T09:37:24.389Z,99.90
2019-01-26T09:39:56.141Z,99.90
2019-01-26T09:42:27.755Z,99.90
2019-01-26T09:44:59.589Z,99.90
2019-01-26T09:47:31.393Z,99.90
2019-01-26T09:50:03.012Z,99.90
2019-01-26T09:52:34.645Z,99.90
2019-01-26T09:55:08.925Z,99.90
2019-01-26T09:57:40.635Z,99.90
2019-01-26T10:00:24.374Z,99.90
2019-01-26T10:02:56.540Z,99.90
2019-01-26T10:05:28.192Z,99.90
2019-01-26T10:07:59.836Z,99.90
2019-01-26T10:10:31.554Z,99.90
2019-01-26T10:13:03.276Z,99.90
2019-01-26T10:15:35.224Z,99.90
2019-01-26T10:18:07.754Z,99.90
2019-01-26T10:20:42.063Z,99.90
2019-01-26T10:23:13.695Z,99.90
2019-01-26T10:25:48.788Z,99.90
2019-01-26T10:28:18.739Z,99.90
2019-01-26T10:30:52.016Z,99.90
2019-01-26T10:33:23.699Z,99.90
2019-01-26T10:35:59.179Z,99.90
2019-01-26T10:38:31.828Z,99.90
2019-01-26T10:41:05.043Z,99.90
2019-01-26T10:43:41.127Z,99.90
2019-01-26T10:46:12.707Z,99.90
2019-01-26T10:48:44.361Z,99.90
2019-01-26T10:51:16.066Z,99.90
2019-01-26T10:53:47.809Z,99.90
2019-01-26T10:56:20.729Z,99.90
2019-01-26T10:58:52.944Z,99.90
2019-01-26T11:01:26.546Z,99.90
2019-01-26T11:03:58.361Z,99.90
2019-01-26T11:06:30.019Z,99.90
2019-01-26T11:09:01.665Z,99.90
2019-01-26T11:11:33.360Z,99.90
2019-01-26T11:14:05.104Z,99.90
2019-01-26T11:16:36.805Z,99.90
2019-01-26T11:19:08.593Z,99.90
2019-01-26T11:21:40.374Z,99.90
2019-01-26T11:24:12.023Z,99.90
2019-01-26T11:26:49.243Z,99.90
2019-01-26T11:29:16.948Z,99.90
2019-01-26T11:31:48.670Z,99.90
2019-01-26T11:34:21.735Z,99.90
2019-01-26T11:36:53.396Z,99.90
2019-01-26T11:39:25.099Z,99.90
2019-01-26T11:41:56.879Z,99.90
2019-01-26T11:44:28.579Z,99.90
2019-01-26T11:47:00.319Z,99.90
2019-01-26T11:49:32.017Z,99.90
2019-01-26T11:52:07.563Z,99.90
2019-01-26T11:54:40.738Z,99.90
2019-01-26T11:57:14.409Z,99.90
2019-01-26T11:59:47.431Z,99.90
2019-01-26T12:02:20.454Z,99.90
2019-01-26T12:04:53.499Z,99.90
2019-01-26T12:07:25.219Z,99.90
2019-01-26T12:09:57.072Z,99.90
2019-01-26T12:12:28.740Z,99.90
2019-01-26T12:15:00.513Z,99.90
2019-01-26T12:17:32.211Z,99.90
2019-01-26T12:20:03.965Z,99.90
2019-01-26T12:22:36.301Z,99.90
2019-01-26T12:25:09.745Z,99.90
2019-01-26T12:27:41.542Z,99.90
2019-01-26T12:30:16.022Z,99.90
2019-01-26T12:32:50.019Z,99.90
2019-01-26T12:35:22.101Z,99.90
2019-01-26T12:37:53.917Z,99.90
2019-01-26T12:40:25.621Z,99.90
2019-01-26T12:42:59.218Z,99.90
2019-01-26T12:45:31.116Z,99.90
2019-01-26T12:48:04.165Z,99.90
2019-01-26T12:50:37.343Z,99.90
2019-01-26T12:53:09.220Z,99.90
2019-01-26T12:55:41.480Z,99.90
2019-01-26T12:58:15.197Z,99.90
2019-01-26T13:00:47.224Z,99.90
2019-01-26T13:03:18.854Z,99.90
2019-01-26T13:05:50.517Z,99.90
2019-01-26T13:08:23.211Z,99.90
2019-01-26T13:11:00.838Z,99.90
2019-01-26T13:13:32.519Z,99.90
2019-01-26T13:16:06.159Z,99.90
2019-01-26T13:18:38.180Z,99.90
2019-01-26T13:21:10.089Z,99.90
2019-01-26T13:23:41.883Z,99.90
2019-01-26T13:26:14.535Z,99.90
2019-01-26T13:28:46.956Z,99.90
2019-01-26T13:31:18.648Z,99.90
2019-01-26T13:36:43.664Z,99.90
2019-01-26T13:39:15.585Z,99.90
2019-01-26T13:41:47.319Z,99.90
2019-01-26T13:44:19.150Z,99.90
2019-01-26T13:46:51.539Z,99.90
2019-01-26T13:49:23.567Z,99.90
2019-01-26T13:51:57.837Z,99.90
2019-01-26T13:54:30.377Z,99.90
2019-01-26T13:57:03.650Z,99.90
2019-01-26T13:59:37.429Z,99.90
2019-01-26T14:02:09.252Z,99.90
2019-01-26T14:04:41.534Z,99.90
2019-01-26T14:07:13.482Z,99.90
2019-01-26T14:09:46.081Z,99.90
2019-01-26T14:12:17.992Z,99.90
2019-01-26T14:14:49.927Z,99.90
2019-01-26T14:17:22.009Z,99.90
2019-01-26T14:19:53.812Z,99.90
2019-01-26T14:22:26.034Z,99.90
2019-01-26T14:24:57.793Z,99.90
2019-01-26T14:27:30.039Z,99.90
2019-01-26T14:30:02.781Z,99.90
2019-01-26T14:32:34.903Z,99.90
2019-01-26T14:35:10.550Z,99.90
2019-01-26T14:37:42.210Z,99.90
2019-01-26T14:40:16.645Z,99.90
2019-01-26T14:42:54.205Z,99.90
2019-01-26T14:45:22.194Z,99.90
2019-01-26T14:47:53.917Z,99.90
2019-01-26T14:50:25.595Z,99.90
2019-01-26T14:52:57.709Z,99.90
2019-01-26T14:55:31.278Z,99.90
2019-01-26T14:58:03.804Z,99.90
2019-01-26T15:00:37.967Z,99.90
2019-01-26T15:03:09.680Z,99.90
2019-01-26T15:05:41.606Z,99.90
2019-01-26T15:08:13.417Z,99.90
2019-01-26T15:10:45.328Z,99.90
2019-01-26T15:13:17.119Z,99.90
2019-01-26T15:15:49.609Z,99.90
2019-01-26T15:18:21.356Z,99.90
2019-01-26T15:20:53.092Z,99.90
2019-01-26T15:23:25.027Z,99.90
2019-01-26T15:25:57.153Z,99.90
2019-01-26T15:28:28.770Z,99.90
2019-01-26T15:34:08.452Z,99.90
2019-01-26T15:36:40.132Z,99.90
2019-01-26T15:39:11.818Z,99.90
2019-01-26T15:41:43.570Z,99.90
2019-01-26T15:44:15.520Z,99.90
2019-01-26T15:46:47.704Z,99.90
2019-01-26T15:49:19.316Z,99.90
2019-01-26T15:51:51.724Z,99.90
2019-01-26T15:54:23.507Z,99.90
2019-01-26T15:56:55.732Z,99.90
2019-01-26T15:59:27.469Z,99.90
2019-01-26T16:01:59.588Z,99.90
2019-01-26T16:04:32.006Z,99.90
2019-01-26T16:07:05.011Z,99.90
2019-01-26T16:09:37.041Z,99.90
2019-01-26T16:12:08.839Z,99.90
2019-01-26T16:14:41.092Z,99.90
2019-01-26T16:17:13.739Z,99.90
2019-01-26T16:19:45.560Z,99.90
2019-01-26T16:22:17.255Z,98.60
2019-01-26T16:24:49.054Z,98.80
2019-01-26T16:27:21.209Z,99.30
2019-01-26T16:29:53.101Z,98.80
2019-01-26T16:32:25.516Z,98.10
2019-01-26T16:34:57.427Z,99.60
2019-01-26T16:37:29.794Z,97.50
2019-01-26T16:40:01.421Z,97.90
2019-01-26T16:42:33.897Z,98.30
2019-01-26T16:45:08.039Z,97.40
2019-01-26T16:47:40.410Z,97.40
2019-01-26T16:50:27.254Z,98.50
2019-01-26T16:52:53.778Z,98.20
2019-01-26T16:55:25.702Z,98.40
2019-01-26T16:57:57.444Z,98.50
2019-01-26T17:00:31.984Z,95.70
2019-01-26T17:03:04.187Z,95.90
2019-01-26T17:05:36.047Z,95.10
2019-01-26T17:08:07.963Z,96.70
2019-01-26T17:10:40.080Z,95.60
2019-01-26T17:13:12.260Z,96.50
2019-01-26T17:15:43.954Z,96.60
2019-01-26T17:18:15.710Z,97.00
2019-01-26T17:20:47.698Z,95.80
2019-01-26T17:23:19.962Z,95.90
2019-01-26T17:25:52.122Z,94.70
2019-01-26T17:28:24.436Z,95.30
2019-01-26T17:30:56.399Z,95.90
2019-01-26T17:33:28.831Z,95.90
2019-01-26T17:36:00.697Z,94.60
2019-01-26T17:38:32.427Z,93.40
2019-01-26T17:41:05.678Z,93.60
2019-01-26T17:43:37.434Z,92.30
2019-01-26T17:46:09.246Z,91.90
2019-01-26T17:48:41.468Z,91.70
2019-01-26T17:51:13.172Z,92.20
2019-01-26T17:53:46.154Z,91.60
2019-01-26T17:56:19.485Z,89.70
2019-01-26T18:02:22.882Z,89.00
2019-01-26T18:04:54.694Z,85.60
2019-01-26T18:07:26.418Z,86.80
2019-01-26T18:09:58.558Z,84.40
2019-01-26T18:12:30.592Z,84.30
2019-01-26T18:15:02.281Z,83.90
2019-01-26T18:17:34.298Z,81.10
2019-01-26T18:22:46.578Z,85.40
2019-01-26T18:25:19.062Z,82.40
2019-01-26T18:27:56.270Z,78.20
2019-01-26T18:30:35.310Z,73.50
2019-01-26T18:33:07.605Z,74.50
2019-01-26T18:35:40.412Z,78.20
2019-01-26T18:38:12.391Z,75.00
2019-01-26T18:40:46.106Z,72.50
2019-01-26T18:43:18.369Z,68.50
2019-01-26T18:45:50.430Z,69.80
2019-01-26T18:48:22.429Z,72.00
2019-01-26T18:50:56.314Z,69.00
2019-01-26T18:57:03.641Z,72.90
2019-01-26T18:59:37.339Z,71.90
2019-01-26T19:02:09.106Z,70.40
2019-01-26T19:04:41.060Z,69.40
2019-01-26T19:07:12.739Z,71.50
2019-01-26T19:09:45.403Z,70.30
2019-01-26T19:12:19.594Z,67.30
2019-01-26T19:15:00.889Z,68.10
2019-01-26T19:17:35.331Z,67.10
2019-01-26T19:20:09.968Z,67.30
2019-01-26T19:22:43.142Z,66.80
2019-01-26T19:25:17.888Z,69.80
2019-01-26T19:27:51.925Z,68.60
2019-01-26T19:30:25.546Z,67.50
2019-01-26T19:32:59.016Z,67.90
2019-01-26T19:35:30.731Z,68.70
2019-01-26T19:38:03.628Z,68.30
2019-01-26T19:40:35.872Z,69.30
2019-01-26T19:43:10.604Z,69.40
2019-01-26T19:45:46.231Z,70.90
2019-01-26T19:48:19.884Z,70.80
2019-01-26T19:50:52.550Z,72.00
2019-01-26T19:53:24.557Z,71.30
2019-01-26T19:55:56.738Z,69.80
2019-01-26T19:58:28.700Z,72.10
2019-01-26T20:01:03.190Z,72.30
2019-01-26T20:03:38.789Z,68.90
2019-01-26T20:06:14.760Z,68.10
2019-01-26T20:08:51.320Z,69.30
2019-01-26T20:11:23.314Z,73.00
2019-01-26T20:13:55.015Z,72.30
2019-01-26T20:16:26.841Z,70.30
2019-01-26T20:19:01.472Z,68.50
2019-01-26T20:21:33.815Z,66.40
2019-01-26T20:24:07.800Z,67.80
2019-01-26T20:26:39.446Z,70.30
2019-01-26T20:29:11.480Z,69.30
2019-01-26T20:31:43.238Z,69.20
2019-01-26T20:34:15.246Z,71.00
2019-01-26T20:36:47.299Z,72.00
2019-01-26T20:39:20.429Z,73.00
2019-01-26T20:41:52.363Z,74.60
2019-01-26T20:44:24.952Z,75.80
2019-01-26T20:46:56.771Z,75.30
2019-01-26T20:49:29.880Z,74.30
2019-01-26T20:52:02.609Z,73.40
2019-01-26T20:54:34.920Z,72.20
2019-01-26T20:57:09.362Z,74.00
2019-01-26T20:59:41.455Z,73.50
2019-01-26T21:02:13.383Z,75.00
2019-01-26T21:04:45.678Z,76.10
2019-01-26T21:07:18.752Z,76.30
2019-01-26T21:09:51.529Z,76.30
2019-01-26T21:12:23.389Z,74.70
2019-01-26T21:14:55.250Z,75.80
2019-01-26T21:17:27.553Z,75.20
2019-01-26T21:19:59.853Z,76.30
2019-01-26T21:22:38.050Z,75.40
2019-01-26T21:25:12.586Z,76.00
2019-01-26T21:27:44.864Z,78.10
2019-01-26T21:30:24.892Z,77.90
2019-01-26T21:32:57.101Z,79.00
2019-01-26T21:35:29.022Z,78.20
2019-01-26T21:38:00.884Z,80.00
2019-01-26T21:40:33.406Z,78.80
2019-01-26T21:43:05.241Z,78.80
2019-01-26T21:45:37.082Z,75.80
2019-01-26T21:48:09.427Z,77.00
2019-01-26T21:50:41.290Z,79.30
2019-01-26T21:53:13.148Z,81.70
2019-01-26T21:55:45.410Z,83.60
2019-01-26T21:58:17.202Z,85.90
2019-01-26T22:00:51.203Z,87.50
2019-01-26T22:03:23.149Z,87.60
2019-01-26T22:05:55.068Z,87.70
2019-01-26T22:08:28.630Z,88.00
2019-01-26T22:11:00.745Z,89.00
2019-01-26T22:13:32.941Z,89.00
2019-01-26T22:16:04.582Z,89.70
2019-01-26T22:18:36.558Z,89.50
2019-01-26T22:21:08.662Z,89.00
2019-01-26T22:23:40.348Z,88.50
2019-01-26T22:26:12.628Z,88.70
2019-01-26T22:28:45.311Z,89.30
2019-01-26T22:31:17.335Z,90.40
2019-01-26T22:33:49.112Z,90.40
2019-01-26T22:36:20.866Z,90.80
2019-01-26T22:38:52.475Z,90.90
2019-01-26T22:41:24.742Z,90.60
2019-01-26T22:43:56.908Z,90.90
2019-01-26T22:46:29.188Z,91.00
2019-01-26T22:49:01.276Z,91.20
2019-01-26T22:51:34.398Z,91.40
2019-01-26T22:54:06.888Z,91.50
2019-01-26T22:56:39.051Z,92.10
2019-01-26T22:59:10.868Z,92.90
2019-01-26T23:01:42.629Z,92.80
2019-01-26T23:04:26.219Z,93.20
2019-01-26T23:07:00.904Z,94.20
2019-01-26T23:09:35.448Z,95.10
2019-01-26T23:12:10.161Z,95.60
2019-01-26T23:15:04.393Z,96.10
2019-01-26T23:17:44.743Z,96.60
2019-01-26T23:20:21.781Z,97.40
2019-01-26T23:22:59.379Z,97.80
2019-01-26T23:26:04.905Z,98.10
2019-01-26T23:28:51.462Z,98.80
2019-01-26T23:31:23.547Z,98.20
2019-01-26T23:33:56.573Z,98.60
2019-01-26T23:36:28.691Z,99.10
2019-01-26T23:39:02.527Z,99.90
2019-01-26T23:41:34.007Z,99.90
2019-01-26T23:44:06.151Z,99.90
2019-01-26T23:46:37.885Z,99.90
2019-01-26T23:49:11.009Z,99.90
2019-01-26T23:51:43.063Z,99.90
2019-01-26T23:54:14.798Z,99.90
2019-01-26T23:56:46.556Z,99.90
2019-01-26T23:59:18.814Z,99.90
